sensor_id;sensor_type;location;lat;lon;timestamp;P1;durP1;ratioP1;P2;durP2;ratioP2
26311;SDS011;14019;56.964;24.016;2023-02-01T00:00:18;11.38;;;4.03;;
26311;SDS011;14019;56.964;24.016;2023-02-01T00:03:05;11.60;;;3.78;;
26311;SDS011;14019;56.964;24.016;2023-02-01T00:05:57;16.73;;;3.78;;
26311;SDS011;14019;56.964;24.016;2023-02-01T00:08:44;14.50;;;3.90;;
26311;SDS011;14019;56.964;24.016;2023-02-01T00:11:30;12.07;;;4.00;;
26311;SDS011;14019;56.964;24.016;2023-02-01T00:14:16;15.98;;;4.10;;
26311;SDS011;14019;56.964;24.016;2023-02-01T00:17:12;14.13;;;3.72;;
26311;SDS011;14019;56.964;24.016;2023-02-01T00:19:58;11.85;;;3.70;;
26311;SDS011;14019;56.964;24.016;2023-02-01T00:22:44;12.70;;;4.18;;
26311;SDS011;14019;56.964;24.016;2023-02-01T00:25:31;15.50;;;4.15;;
26311;SDS011;14019;56.964;24.016;2023-02-01T00:28:17;9.13;;;3.90;;
26311;SDS011;14019;56.964;24.016;2023-02-01T00:31:04;14.00;;;4.28;;
26311;SDS011;14019;56.964;24.016;2023-02-01T00:33:50;11.88;;;4.05;;
26311;SDS011;14019;56.964;24.016;2023-02-01T00:36:37;14.63;;;4.10;;
26311;SDS011;14019;56.964;24.016;2023-02-01T00:39:24;13.48;;;4.45;;
26311;SDS011;14019;56.964;24.016;2023-02-01T00:42:10;11.75;;;3.78;;
26311;SDS011;14019;56.964;24.016;2023-02-01T00:45:00;14.43;;;4.78;;
26311;SDS011;14019;56.964;24.016;2023-02-01T00:47:46;17.38;;;4.53;;
26311;SDS011;14019;56.964;24.016;2023-02-01T00:50:32;14.35;;;4.68;;
26311;SDS011;14019;56.964;24.016;2023-02-01T00:53:20;14.98;;;4.13;;
26311;SDS011;14019;56.964;24.016;2023-02-01T00:56:07;13.57;;;4.50;;
26311;SDS011;14019;56.964;24.016;2023-02-01T00:58:53;12.55;;;4.63;;
26311;SDS011;14019;56.964;24.016;2023-02-01T01:01:39;10.73;;;4.57;;
26311;SDS011;14019;56.964;24.016;2023-02-01T01:04:26;13.23;;;4.53;;
26311;SDS011;14019;56.964;24.016;2023-02-01T01:07:12;14.00;;;4.45;;
26311;SDS011;14019;56.964;24.016;2023-02-01T01:09:59;14.77;;;4.30;;
26311;SDS011;14019;56.964;24.016;2023-02-01T01:12:45;13.82;;;4.75;;
26311;SDS011;14019;56.964;24.016;2023-02-01T01:15:36;12.90;;;4.55;;
26311;SDS011;14019;56.964;24.016;2023-02-01T01:18:23;12.38;;;4.57;;
26311;SDS011;14019;56.964;24.016;2023-02-01T01:21:11;12.93;;;4.45;;
26311;SDS011;14019;56.964;24.016;2023-02-01T01:23:57;16.10;;;4.55;;
26311;SDS011;14019;56.964;24.016;2023-02-01T01:26:44;10.35;;;4.85;;
26311;SDS011;14019;56.964;24.016;2023-02-01T01:29:30;12.60;;;4.47;;
26311;SDS011;14019;56.964;24.016;2023-02-01T01:32:17;11.60;;;4.50;;
26311;SDS011;14019;56.964;24.016;2023-02-01T01:38:10;11.32;;;4.32;;
26311;SDS011;14019;56.964;24.016;2023-02-01T01:40:57;13.43;;;4.75;;
26311;SDS011;14019;56.964;24.016;2023-02-01T01:44:05;13.60;;;4.38;;
26311;SDS011;14019;56.964;24.016;2023-02-01T01:47:15;14.20;;;4.97;;
26311;SDS011;14019;56.964;24.016;2023-02-01T01:50:29;12.77;;;4.93;;
26311;SDS011;14019;56.964;24.016;2023-02-01T01:53:18;10.48;;;4.72;;
26311;SDS011;14019;56.964;24.016;2023-02-01T01:56:08;12.52;;;4.80;;
26311;SDS011;14019;56.964;24.016;2023-02-01T01:58:54;12.30;;;4.85;;
26311;SDS011;14019;56.964;24.016;2023-02-01T02:01:41;12.32;;;5.07;;
26311;SDS011;14019;56.964;24.016;2023-02-01T02:04:28;14.70;;;4.78;;
26311;SDS011;14019;56.964;24.016;2023-02-01T02:07:16;13.65;;;4.70;;
26311;SDS011;14019;56.964;24.016;2023-02-01T02:10:04;15.77;;;5.10;;
26311;SDS011;14019;56.964;24.016;2023-02-01T02:12:51;12.73;;;5.20;;
26311;SDS011;14019;56.964;24.016;2023-02-01T02:15:38;14.32;;;4.82;;
26311;SDS011;14019;56.964;24.016;2023-02-01T02:37:03;14.43;;;4.95;;
26311;SDS011;14019;56.964;24.016;2023-02-01T02:39:53;12.45;;;5.32;;
26311;SDS011;14019;56.964;24.016;2023-02-01T02:42:50;11.18;;;5.30;;
26311;SDS011;14019;56.964;24.016;2023-02-01T02:46:06;11.48;;;5.20;;
26311;SDS011;14019;56.964;24.016;2023-02-01T02:49:22;11.60;;;5.07;;
26311;SDS011;14019;56.964;24.016;2023-02-01T02:55:38;13.40;;;5.15;;
26311;SDS011;14019;56.964;24.016;2023-02-01T02:58:26;13.15;;;5.55;;
26311;SDS011;14019;56.964;24.016;2023-02-01T03:01:31;11.63;;;5.40;;
26311;SDS011;14019;56.964;24.016;2023-02-01T03:04:37;14.50;;;5.47;;
26311;SDS011;14019;56.964;24.016;2023-02-01T03:11:04;11.75;;;5.47;;
26311;SDS011;14019;56.964;24.016;2023-02-01T03:16:40;11.30;;;5.40;;
26311;SDS011;14019;56.964;24.016;2023-02-01T03:19:39;10.98;;;5.28;;
26311;SDS011;14019;56.964;24.016;2023-02-01T03:22:29;10.63;;;5.40;;
26311;SDS011;14019;56.964;24.016;2023-02-01T03:25:30;10.52;;;5.25;;
26311;SDS011;14019;56.964;24.016;2023-02-01T03:28:18;12.50;;;5.88;;
26311;SDS011;14019;56.964;24.016;2023-02-01T03:31:10;10.90;;;5.75;;
26311;SDS011;14019;56.964;24.016;2023-02-01T03:33:59;11.43;;;6.00;;
26311;SDS011;14019;56.964;24.016;2023-02-01T03:36:51;11.82;;;5.75;;
26311;SDS011;14019;56.964;24.016;2023-02-01T03:39:49;11.90;;;5.47;;
26311;SDS011;14019;56.964;24.016;2023-02-01T03:42:43;14.38;;;6.18;;
26311;SDS011;14019;56.964;24.016;2023-02-01T03:45:34;14.55;;;6.30;;
26311;SDS011;14019;56.964;24.016;2023-02-01T03:48:22;12.15;;;6.20;;
26311;SDS011;14019;56.964;24.016;2023-02-01T03:51:09;14.40;;;6.30;;
26311;SDS011;14019;56.964;24.016;2023-02-01T03:53:56;16.27;;;6.22;;
26311;SDS011;14019;56.964;24.016;2023-02-01T03:56:43;11.85;;;6.47;;
26311;SDS011;14019;56.964;24.016;2023-02-01T03:59:31;14.93;;;7.00;;
26311;SDS011;14019;56.964;24.016;2023-02-01T04:02:17;15.55;;;6.75;;
26311;SDS011;14019;56.964;24.016;2023-02-01T04:05:03;19.27;;;7.43;;
26311;SDS011;14019;56.964;24.016;2023-02-01T04:11:04;18.60;;;7.57;;
26311;SDS011;14019;56.964;24.016;2023-02-01T04:13:50;16.15;;;7.82;;
26311;SDS011;14019;56.964;24.016;2023-02-01T04:16:36;18.55;;;7.93;;
26311;SDS011;14019;56.964;24.016;2023-02-01T04:19:28;20.10;;;8.38;;
26311;SDS011;14019;56.964;24.016;2023-02-01T04:22:15;19.65;;;8.45;;
26311;SDS011;14019;56.964;24.016;2023-02-01T04:25:01;17.45;;;8.43;;
26311;SDS011;14019;56.964;24.016;2023-02-01T04:27:48;21.58;;;8.85;;
26311;SDS011;14019;56.964;24.016;2023-02-01T04:30:35;20.35;;;8.98;;
26311;SDS011;14019;56.964;24.016;2023-02-01T04:33:21;21.98;;;9.45;;
26311;SDS011;14019;56.964;24.016;2023-02-01T04:36:07;21.52;;;9.43;;
26311;SDS011;14019;56.964;24.016;2023-02-01T04:38:55;22.67;;;9.55;;
26311;SDS011;14019;56.964;24.016;2023-02-01T04:41:41;22.63;;;9.57;;
26311;SDS011;14019;56.964;24.016;2023-02-01T04:44:28;23.27;;;9.50;;
26311;SDS011;14019;56.964;24.016;2023-02-01T04:47:14;19.60;;;9.23;;
26311;SDS011;14019;56.964;24.016;2023-02-01T04:50:00;21.35;;;9.93;;
26311;SDS011;14019;56.964;24.016;2023-02-01T04:52:46;22.70;;;9.45;;
26311;SDS011;14019;56.964;24.016;2023-02-01T04:55:33;19.67;;;9.68;;
26311;SDS011;14019;56.964;24.016;2023-02-01T04:58:21;19.40;;;9.05;;
26311;SDS011;14019;56.964;24.016;2023-02-01T05:01:08;21.45;;;9.32;;
26311;SDS011;14019;56.964;24.016;2023-02-01T05:03:54;20.42;;;9.35;;
26311;SDS011;14019;56.964;24.016;2023-02-01T05:06:41;19.10;;;9.55;;
26311;SDS011;14019;56.964;24.016;2023-02-01T05:09:31;18.98;;;10.23;;
26311;SDS011;14019;56.964;24.016;2023-02-01T05:12:18;20.13;;;8.90;;
26311;SDS011;14019;56.964;24.016;2023-02-01T05:15:23;21.33;;;9.38;;
26311;SDS011;14019;56.964;24.016;2023-02-01T05:18:09;19.45;;;9.23;;
26311;SDS011;14019;56.964;24.016;2023-02-01T05:20:56;19.40;;;9.80;;
26311;SDS011;14019;56.964;24.016;2023-02-01T05:23:42;19.77;;;9.63;;
26311;SDS011;14019;56.964;24.016;2023-02-01T05:26:47;22.10;;;10.05;;
26311;SDS011;14019;56.964;24.016;2023-02-01T05:29:34;21.42;;;9.82;;
26311;SDS011;14019;56.964;24.016;2023-02-01T05:32:21;20.30;;;10.15;;
26311;SDS011;14019;56.964;24.016;2023-02-01T05:35:08;23.70;;;11.30;;
26311;SDS011;14019;56.964;24.016;2023-02-01T05:37:54;23.35;;;10.80;;
26311;SDS011;14019;56.964;24.016;2023-02-01T05:40:45;21.08;;;10.65;;
26311;SDS011;14019;56.964;24.016;2023-02-01T05:43:34;25.20;;;11.50;;
26311;SDS011;14019;56.964;24.016;2023-02-01T05:46:21;23.10;;;10.57;;
26311;SDS011;14019;56.964;24.016;2023-02-01T05:49:07;23.85;;;10.63;;
26311;SDS011;14019;56.964;24.016;2023-02-01T05:51:54;25.77;;;11.07;;
26311;SDS011;14019;56.964;24.016;2023-02-01T05:54:43;20.92;;;10.13;;
26311;SDS011;14019;56.964;24.016;2023-02-01T05:57:30;22.45;;;10.57;;
26311;SDS011;14019;56.964;24.016;2023-02-01T06:00:16;22.05;;;9.60;;
26311;SDS011;14019;56.964;24.016;2023-02-01T06:03:06;22.85;;;10.20;;
26311;SDS011;14019;56.964;24.016;2023-02-01T06:05:53;23.15;;;9.68;;
26311;SDS011;14019;56.964;24.016;2023-02-01T06:08:39;22.55;;;10.07;;
26311;SDS011;14019;56.964;24.016;2023-02-01T06:11:26;18.73;;;9.65;;
26311;SDS011;14019;56.964;24.016;2023-02-01T06:14:17;22.00;;;10.32;;
26311;SDS011;14019;56.964;24.016;2023-02-01T06:17:03;18.83;;;9.38;;
26311;SDS011;14019;56.964;24.016;2023-02-01T06:23:13;24.20;;;9.88;;
26311;SDS011;14019;56.964;24.016;2023-02-01T06:26:01;23.40;;;9.95;;
26311;SDS011;14019;56.964;24.016;2023-02-01T06:28:48;20.80;;;10.25;;
26311;SDS011;14019;56.964;24.016;2023-02-01T06:31:35;22.90;;;9.63;;
26311;SDS011;14019;56.964;24.016;2023-02-01T06:34:23;23.50;;;9.93;;
26311;SDS011;14019;56.964;24.016;2023-02-01T06:37:09;24.48;;;9.90;;
26311;SDS011;14019;56.964;24.016;2023-02-01T06:39:56;21.45;;;10.48;;
26311;SDS011;14019;56.964;24.016;2023-02-01T06:42:47;22.33;;;10.18;;
26311;SDS011;14019;56.964;24.016;2023-02-01T06:45:34;23.35;;;10.68;;
26311;SDS011;14019;56.964;24.016;2023-02-01T06:48:21;24.63;;;9.93;;
26311;SDS011;14019;56.964;24.016;2023-02-01T06:51:16;22.38;;;10.35;;
26311;SDS011;14019;56.964;24.016;2023-02-01T06:54:03;22.75;;;10.52;;
26311;SDS011;14019;56.964;24.016;2023-02-01T06:56:50;22.58;;;11.10;;
26311;SDS011;14019;56.964;24.016;2023-02-01T06:59:37;25.42;;;11.45;;
26311;SDS011;14019;56.964;24.016;2023-02-01T07:02:23;25.42;;;11.80;;
26311;SDS011;14019;56.964;24.016;2023-02-01T07:05:09;23.13;;;11.05;;
26311;SDS011;14019;56.964;24.016;2023-02-01T07:07:55;25.67;;;12.18;;
26311;SDS011;14019;56.964;24.016;2023-02-01T07:10:42;25.27;;;11.57;;
26311;SDS011;14019;56.964;24.016;2023-02-01T07:13:28;23.02;;;11.45;;
26311;SDS011;14019;56.964;24.016;2023-02-01T07:16:16;26.20;;;11.73;;
26311;SDS011;14019;56.964;24.016;2023-02-01T07:19:02;24.65;;;11.73;;
26311;SDS011;14019;56.964;24.016;2023-02-01T07:21:49;28.55;;;12.88;;
26311;SDS011;14019;56.964;24.016;2023-02-01T07:24:36;30.58;;;13.13;;
26311;SDS011;14019;56.964;24.016;2023-02-01T07:27:23;26.17;;;11.68;;
26311;SDS011;14019;56.964;24.016;2023-02-01T07:30:10;25.75;;;11.80;;
26311;SDS011;14019;56.964;24.016;2023-02-01T07:32:57;28.30;;;12.32;;
26311;SDS011;14019;56.964;24.016;2023-02-01T07:35:47;24.67;;;12.50;;
26311;SDS011;14019;56.964;24.016;2023-02-01T07:38:33;25.27;;;11.40;;
26311;SDS011;14019;56.964;24.016;2023-02-01T07:41:21;27.23;;;12.20;;
26311;SDS011;14019;56.964;24.016;2023-02-01T07:44:07;27.13;;;12.27;;
26311;SDS011;14019;56.964;24.016;2023-02-01T07:46:53;27.38;;;12.65;;
26311;SDS011;14019;56.964;24.016;2023-02-01T07:49:39;30.73;;;13.25;;
26311;SDS011;14019;56.964;24.016;2023-02-01T07:52:29;26.98;;;12.05;;
26311;SDS011;14019;56.964;24.016;2023-02-01T07:55:15;30.48;;;13.80;;
26311;SDS011;14019;56.964;24.016;2023-02-01T07:58:02;26.05;;;12.75;;
26311;SDS011;14019;56.964;24.016;2023-02-01T08:00:48;33.95;;;14.07;;
26311;SDS011;14019;56.964;24.016;2023-02-01T08:03:54;31.00;;;13.93;;
26311;SDS011;14019;56.964;24.016;2023-02-01T08:06:41;30.55;;;14.73;;
26311;SDS011;14019;56.964;24.016;2023-02-01T08:09:27;30.55;;;14.45;;
26311;SDS011;14019;56.964;24.016;2023-02-01T08:12:14;31.25;;;15.10;;
26311;SDS011;14019;56.964;24.016;2023-02-01T08:15:00;29.65;;;13.75;;
26311;SDS011;14019;56.964;24.016;2023-02-01T08:17:47;31.45;;;13.73;;
26311;SDS011;14019;56.964;24.016;2023-02-01T08:20:33;29.95;;;14.23;;
26311;SDS011;14019;56.964;24.016;2023-02-01T08:23:21;28.55;;;14.27;;
26311;SDS011;14019;56.964;24.016;2023-02-01T08:26:09;28.10;;;13.90;;
26311;SDS011;14019;56.964;24.016;2023-02-01T08:28:57;33.20;;;14.70;;
26311;SDS011;14019;56.964;24.016;2023-02-01T08:31:44;27.63;;;13.73;;
26311;SDS011;14019;56.964;24.016;2023-02-01T08:34:30;31.88;;;14.68;;
26311;SDS011;14019;56.964;24.016;2023-02-01T08:37:20;29.45;;;14.25;;
26311;SDS011;14019;56.964;24.016;2023-02-01T08:40:06;30.80;;;15.25;;
26311;SDS011;14019;56.964;24.016;2023-02-01T08:42:53;32.63;;;13.85;;
26311;SDS011;14019;56.964;24.016;2023-02-01T08:45:39;32.45;;;14.95;;
26311;SDS011;14019;56.964;24.016;2023-02-01T08:48:26;31.77;;;14.48;;
26311;SDS011;14019;56.964;24.016;2023-02-01T08:51:13;30.48;;;14.85;;
26311;SDS011;14019;56.964;24.016;2023-02-01T08:54:01;31.02;;;14.70;;
26311;SDS011;14019;56.964;24.016;2023-02-01T08:56:47;34.03;;;16.35;;
26311;SDS011;14019;56.964;24.016;2023-02-01T08:59:33;34.38;;;15.45;;
26311;SDS011;14019;56.964;24.016;2023-02-01T09:02:20;35.67;;;15.63;;
26311;SDS011;14019;56.964;24.016;2023-02-01T09:05:06;36.67;;;15.95;;
26311;SDS011;14019;56.964;24.016;2023-02-01T09:07:53;29.52;;;14.35;;
26311;SDS011;14019;56.964;24.016;2023-02-01T09:10:39;29.10;;;13.88;;
26311;SDS011;14019;56.964;24.016;2023-02-01T09:13:27;26.98;;;13.23;;
26311;SDS011;14019;56.964;24.016;2023-02-01T09:16:13;28.88;;;13.57;;
26311;SDS011;14019;56.964;24.016;2023-02-01T09:19:00;30.48;;;14.18;;
26311;SDS011;14019;56.964;24.016;2023-02-01T09:22:06;28.15;;;12.63;;
26311;SDS011;14019;56.964;24.016;2023-02-01T09:24:53;25.58;;;11.55;;
26311;SDS011;14019;56.964;24.016;2023-02-01T09:27:39;23.92;;;11.52;;
26311;SDS011;14019;56.964;24.016;2023-02-01T09:30:26;26.52;;;11.05;;
26311;SDS011;14019;56.964;24.016;2023-02-01T09:33:15;22.25;;;10.73;;
26311;SDS011;14019;56.964;24.016;2023-02-01T09:36:04;29.50;;;12.18;;
26311;SDS011;14019;56.964;24.016;2023-02-01T09:38:50;27.67;;;11.82;;
26311;SDS011;14019;56.964;24.016;2023-02-01T09:47:20;30.35;;;13.60;;
26311;SDS011;14019;56.964;24.016;2023-02-01T09:50:16;27.42;;;12.93;;
26311;SDS011;14019;56.964;24.016;2023-02-01T09:55:57;30.50;;;12.48;;
26311;SDS011;14019;56.964;24.016;2023-02-01T09:58:59;26.95;;;13.13;;
26311;SDS011;14019;56.964;24.016;2023-02-01T10:01:48;29.42;;;13.85;;
26311;SDS011;14019;56.964;24.016;2023-02-01T10:04:34;27.60;;;13.68;;
26311;SDS011;14019;56.964;24.016;2023-02-01T10:10:12;28.00;;;13.27;;
26311;SDS011;14019;56.964;24.016;2023-02-01T10:16:17;26.30;;;11.43;;
26311;SDS011;14019;56.964;24.016;2023-02-01T10:27:35;27.60;;;12.35;;
26311;SDS011;14019;56.964;24.016;2023-02-01T10:30:23;26.75;;;12.70;;
26311;SDS011;14019;56.964;24.016;2023-02-01T10:36:04;34.25;;;14.00;;
26311;SDS011;14019;56.964;24.016;2023-02-01T10:38:52;35.35;;;14.70;;
26311;SDS011;14019;56.964;24.016;2023-02-01T10:41:39;35.45;;;15.48;;
26311;SDS011;14019;56.964;24.016;2023-02-01T10:44:28;34.47;;;14.52;;
26311;SDS011;14019;56.964;24.016;2023-02-01T10:47:16;40.53;;;16.02;;
26311;SDS011;14019;56.964;24.016;2023-02-01T10:50:37;37.50;;;16.73;;
26311;SDS011;14019;56.964;24.016;2023-02-01T10:53:19;38.38;;;17.73;;
26311;SDS011;14019;56.964;24.016;2023-02-01T10:56:08;35.50;;;13.48;;
26311;SDS011;14019;56.964;24.016;2023-02-01T10:59:02;40.65;;;18.00;;
26311;SDS011;14019;56.964;24.016;2023-02-01T11:01:50;38.33;;;18.33;;
26311;SDS011;14019;56.964;24.016;2023-02-01T11:04:36;42.40;;;18.48;;
26311;SDS011;14019;56.964;24.016;2023-02-01T11:07:23;42.38;;;18.67;;
26311;SDS011;14019;56.964;24.016;2023-02-01T11:10:13;37.53;;;17.92;;
26311;SDS011;14019;56.964;24.016;2023-02-01T11:13:17;42.47;;;18.48;;
26311;SDS011;14019;56.964;24.016;2023-02-01T11:16:04;41.08;;;19.30;;
26311;SDS011;14019;56.964;24.016;2023-02-01T11:18:54;41.33;;;18.50;;
26311;SDS011;14019;56.964;24.016;2023-02-01T11:21:41;43.28;;;18.90;;
26311;SDS011;14019;56.964;24.016;2023-02-01T11:24:34;47.67;;;19.27;;
26311;SDS011;14019;56.964;24.016;2023-02-01T11:27:21;52.75;;;21.27;;
26311;SDS011;14019;56.964;24.016;2023-02-01T11:30:16;47.95;;;22.02;;
26311;SDS011;14019;56.964;24.016;2023-02-01T11:33:04;44.47;;;20.92;;
26311;SDS011;14019;56.964;24.016;2023-02-01T11:35:51;46.85;;;21.13;;
26311;SDS011;14019;56.964;24.016;2023-02-01T11:38:38;45.50;;;19.50;;
26311;SDS011;14019;56.964;24.016;2023-02-01T11:41:25;42.58;;;19.38;;
26311;SDS011;14019;56.964;24.016;2023-02-01T11:44:19;47.40;;;20.95;;
26311;SDS011;14019;56.964;24.016;2023-02-01T11:47:23;45.92;;;20.65;;
26311;SDS011;14019;56.964;24.016;2023-02-01T11:50:18;44.08;;;19.77;;
26311;SDS011;14019;56.964;24.016;2023-02-01T11:56:00;43.47;;;20.05;;
26311;SDS011;14019;56.964;24.016;2023-02-01T12:02:10;45.28;;;20.23;;
26311;SDS011;14019;56.964;24.016;2023-02-01T12:43:20;46.88;;;21.88;;
26311;SDS011;14019;56.964;24.016;2023-02-01T12:46:15;55.20;;;23.15;;
26311;SDS011;14019;56.964;24.016;2023-02-01T12:52:00;55.80;;;24.35;;
26311;SDS011;14019;56.964;24.016;2023-02-01T12:58:02;63.47;;;25.73;;
26311;SDS011;14019;56.964;24.016;2023-02-01T13:00:57;61.75;;;25.38;;
26311;SDS011;14019;56.964;24.016;2023-02-01T13:09:27;57.53;;;24.67;;
26311;SDS011;14019;56.964;24.016;2023-02-01T13:12:17;54.95;;;24.08;;
26311;SDS011;14019;56.964;24.016;2023-02-01T13:18:13;63.47;;;28.42;;
26311;SDS011;14019;56.964;24.016;2023-02-01T13:21:08;62.92;;;27.52;;
26311;SDS011;14019;56.964;24.016;2023-02-01T13:23:56;68.18;;;29.08;;
26311;SDS011;14019;56.964;24.016;2023-02-01T13:26:45;65.53;;;28.83;;
26311;SDS011;14019;56.964;24.016;2023-02-01T13:29:32;73.95;;;30.90;;
26311;SDS011;14019;56.964;24.016;2023-02-01T13:35:44;69.35;;;30.13;;
26311;SDS011;14019;56.964;24.016;2023-02-01T13:42:00;71.32;;;27.98;;
26311;SDS011;14019;56.964;24.016;2023-02-01T13:44:52;62.97;;;27.20;;
26311;SDS011;14019;56.964;24.016;2023-02-01T13:47:40;64.00;;;28.38;;
26311;SDS011;14019;56.964;24.016;2023-02-01T13:50:29;66.70;;;29.00;;
26311;SDS011;14019;56.964;24.016;2023-02-01T13:53:18;63.70;;;28.70;;
26311;SDS011;14019;56.964;24.016;2023-02-01T13:56:08;65.90;;;29.73;;
26311;SDS011;14019;56.964;24.016;2023-02-01T13:58:57;63.67;;;27.90;;
26311;SDS011;14019;56.964;24.016;2023-02-01T14:05:10;67.72;;;29.88;;
26311;SDS011;14019;56.964;24.016;2023-02-01T14:11:02;52.25;;;23.60;;
26311;SDS011;14019;56.964;24.016;2023-02-01T14:13:49;48.25;;;21.20;;
26311;SDS011;14019;56.964;24.016;2023-02-01T14:16:35;44.92;;;19.83;;
26311;SDS011;14019;56.964;24.016;2023-02-01T14:19:28;47.13;;;19.88;;
26311;SDS011;14019;56.964;24.016;2023-02-01T14:25:16;47.17;;;19.70;;
26311;SDS011;14019;56.964;24.016;2023-02-01T14:28:09;49.40;;;19.20;;
26311;SDS011;14019;56.964;24.016;2023-02-01T14:33:42;40.45;;;17.15;;
26311;SDS011;14019;56.964;24.016;2023-02-01T14:37:05;38.15;;;16.88;;
26311;SDS011;14019;56.964;24.016;2023-02-01T14:51:04;37.88;;;16.25;;
26311;SDS011;14019;56.964;24.016;2023-02-01T14:53:52;33.08;;;13.65;;
26311;SDS011;14019;56.964;24.016;2023-02-01T14:56:39;31.90;;;14.65;;
26311;SDS011;14019;56.964;24.016;2023-02-01T14:59:28;27.35;;;12.77;;
26311;SDS011;14019;56.964;24.016;2023-02-01T15:02:23;27.13;;;12.43;;
26311;SDS011;14019;56.964;24.016;2023-02-01T15:05:29;26.17;;;12.43;;
26311;SDS011;14019;56.964;24.016;2023-02-01T15:08:21;29.63;;;12.73;;
26311;SDS011;14019;56.964;24.016;2023-02-01T15:11:18;28.10;;;12.90;;
26311;SDS011;14019;56.964;24.016;2023-02-01T15:14:12;27.38;;;12.60;;
26311;SDS011;14019;56.964;24.016;2023-02-01T15:17:30;29.63;;;13.45;;
26311;SDS011;14019;56.964;24.016;2023-02-01T15:20:21;28.77;;;13.50;;
26311;SDS011;14019;56.964;24.016;2023-02-01T15:23:15;28.58;;;13.50;;
26311;SDS011;14019;56.964;24.016;2023-02-01T15:26:05;31.50;;;14.43;;
26311;SDS011;14019;56.964;24.016;2023-02-01T15:28:56;31.40;;;14.83;;
26311;SDS011;14019;56.964;24.016;2023-02-01T15:31:50;39.47;;;14.60;;
26311;SDS011;14019;56.964;24.016;2023-02-01T15:34:44;38.97;;;13.68;;
26311;SDS011;14019;56.964;24.016;2023-02-01T15:37:34;34.58;;;11.98;;
26311;SDS011;14019;56.964;24.016;2023-02-01T15:40:20;30.17;;;13.02;;
26311;SDS011;14019;56.964;24.016;2023-02-01T15:43:11;33.88;;;11.20;;
26311;SDS011;14019;56.964;24.016;2023-02-01T15:46:02;25.70;;;12.15;;
26311;SDS011;14019;56.964;24.016;2023-02-01T15:48:51;41.05;;;11.43;;
26311;SDS011;14019;56.964;24.016;2023-02-01T15:51:43;55.53;;;12.00;;
26311;SDS011;14019;56.964;24.016;2023-02-01T15:54:31;28.02;;;12.18;;
26311;SDS011;14019;56.964;24.016;2023-02-01T15:57:30;27.90;;;11.43;;
26311;SDS011;14019;56.964;24.016;2023-02-01T16:00:21;25.42;;;11.30;;
26311;SDS011;14019;56.964;24.016;2023-02-01T16:09:10;29.50;;;11.73;;
26311;SDS011;14019;56.964;24.016;2023-02-01T16:11:59;27.38;;;11.43;;
26311;SDS011;14019;56.964;24.016;2023-02-01T16:14:45;27.58;;;12.20;;
26311;SDS011;14019;56.964;24.016;2023-02-01T16:17:31;38.50;;;10.90;;
26311;SDS011;14019;56.964;24.016;2023-02-01T16:20:18;24.45;;;11.90;;
26311;SDS011;14019;56.964;24.016;2023-02-01T16:23:05;27.17;;;12.07;;
26311;SDS011;14019;56.964;24.016;2023-02-01T16:25:51;31.25;;;11.82;;
26311;SDS011;14019;56.964;24.016;2023-02-01T16:28:38;29.92;;;12.13;;
26311;SDS011;14019;56.964;24.016;2023-02-01T16:31:26;27.48;;;11.70;;
26311;SDS011;14019;56.964;24.016;2023-02-01T16:34:16;31.88;;;11.52;;
26311;SDS011;14019;56.964;24.016;2023-02-01T16:37:04;33.70;;;11.50;;
26311;SDS011;14019;56.964;24.016;2023-02-01T16:39:51;28.73;;;12.18;;
26311;SDS011;14019;56.964;24.016;2023-02-01T16:42:37;25.10;;;11.40;;
26311;SDS011;14019;56.964;24.016;2023-02-01T16:45:26;25.58;;;11.13;;
26311;SDS011;14019;56.964;24.016;2023-02-01T16:48:18;26.02;;;11.52;;
26311;SDS011;14019;56.964;24.016;2023-02-01T16:51:09;25.27;;;10.57;;
26311;SDS011;14019;56.964;24.016;2023-02-01T16:53:56;24.40;;;11.23;;
26311;SDS011;14019;56.964;24.016;2023-02-01T16:56:46;22.20;;;10.38;;
26311;SDS011;14019;56.964;24.016;2023-02-01T16:59:33;26.48;;;11.63;;
26311;SDS011;14019;56.964;24.016;2023-02-01T17:05:50;32.00;;;13.07;;
26311;SDS011;14019;56.964;24.016;2023-02-01T17:08:38;24.48;;;12.57;;
26311;SDS011;14019;56.964;24.016;2023-02-01T17:11:26;32.53;;;13.73;;
26311;SDS011;14019;56.964;24.016;2023-02-01T17:18:26;24.52;;;11.00;;
26311;SDS011;14019;56.964;24.016;2023-02-01T17:25:44;22.27;;;10.18;;
26311;SDS011;14019;56.964;24.016;2023-02-01T17:33:01;25.25;;;10.75;;
26311;SDS011;14019;56.964;24.016;2023-02-01T17:43:34;29.60;;;13.63;;
26311;SDS011;14019;56.964;24.016;2023-02-01T17:47:10;29.48;;;13.00;;
26311;SDS011;14019;56.964;24.016;2023-02-01T17:50:10;29.00;;;13.63;;
26311;SDS011;14019;56.964;24.016;2023-02-01T17:52:56;33.05;;;14.90;;
26311;SDS011;14019;56.964;24.016;2023-02-01T17:55:43;36.17;;;15.38;;
26311;SDS011;14019;56.964;24.016;2023-02-01T17:58:30;25.38;;;12.00;;
26311;SDS011;14019;56.964;24.016;2023-02-01T18:01:19;20.95;;;7.68;;
26311;SDS011;14019;56.964;24.016;2023-02-01T18:04:12;19.52;;;8.10;;
26311;SDS011;14019;56.964;24.016;2023-02-01T18:07:00;19.25;;;8.43;;
26311;SDS011;14019;56.964;24.016;2023-02-01T18:09:46;14.52;;;6.85;;
26311;SDS011;14019;56.964;24.016;2023-02-01T18:12:32;15.77;;;6.72;;
26311;SDS011;14019;56.964;24.016;2023-02-01T18:15:22;18.73;;;7.18;;
26311;SDS011;14019;56.964;24.016;2023-02-01T18:18:10;17.65;;;6.85;;
26311;SDS011;14019;56.964;24.016;2023-02-01T18:20:56;17.77;;;6.80;;
26311;SDS011;14019;56.964;24.016;2023-02-01T18:23:43;18.77;;;7.03;;
26311;SDS011;14019;56.964;24.016;2023-02-01T18:26:36;20.25;;;7.45;;
26311;SDS011;14019;56.964;24.016;2023-02-01T18:29:23;18.65;;;6.40;;
26311;SDS011;14019;56.964;24.016;2023-02-01T18:32:09;20.13;;;6.95;;
26311;SDS011;14019;56.964;24.016;2023-02-01T18:35:01;15.60;;;6.60;;
26311;SDS011;14019;56.964;24.016;2023-02-01T18:37:48;14.65;;;6.53;;
26311;SDS011;14019;56.964;24.016;2023-02-01T18:40:53;13.27;;;6.00;;
26311;SDS011;14019;56.964;24.016;2023-02-01T18:43:43;15.60;;;5.53;;
26311;SDS011;14019;56.964;24.016;2023-02-01T18:46:31;18.88;;;6.25;;
26311;SDS011;14019;56.964;24.016;2023-02-01T18:49:18;15.70;;;5.13;;
26311;SDS011;14019;56.964;24.016;2023-02-01T18:52:05;12.68;;;5.07;;
26311;SDS011;14019;56.964;24.016;2023-02-01T18:54:51;11.65;;;4.85;;
26311;SDS011;14019;56.964;24.016;2023-02-01T18:57:44;8.90;;;4.82;;
26311;SDS011;14019;56.964;24.016;2023-02-01T19:00:32;12.82;;;4.97;;
26311;SDS011;14019;56.964;24.016;2023-02-01T19:03:18;13.02;;;4.53;;
26311;SDS011;14019;56.964;24.016;2023-02-01T19:06:07;11.45;;;4.30;;
26311;SDS011;14019;56.964;24.016;2023-02-01T19:08:53;11.75;;;4.85;;
26311;SDS011;14019;56.964;24.016;2023-02-01T19:11:40;11.38;;;4.80;;
26311;SDS011;14019;56.964;24.016;2023-02-01T19:14:26;11.57;;;4.82;;
26311;SDS011;14019;56.964;24.016;2023-02-01T19:17:12;11.10;;;4.93;;
26311;SDS011;14019;56.964;24.016;2023-02-01T19:19:58;11.65;;;4.60;;
26311;SDS011;14019;56.964;24.016;2023-02-01T19:22:45;11.63;;;4.43;;
26311;SDS011;14019;56.964;24.016;2023-02-01T19:25:31;10.45;;;4.43;;